Time;durP1;ratioP1;P1;durP2;ratioP2;P2;SDS_P1;SDS_P2;PMS_P1;PMS_P2;Temp;Humidity;BMP_temperature;BMP_pressure;BME280_temperature;BME280_humidity;BME280_pressure;Samples;Min_cycle;Max_cycle;Signal;HPM_P1;HPM_P2
2021/11/15 00:02:11;;;;;;;15.98;13.68;;;;;;;8.12;63.89;100744.97;10383353;28;20049;-66
2021/11/15 00:07:13;;;;;;;17.42;15.02;;;;;;;8.20;63.77;100735.09;10380647;28;20128;-66
2021/11/15 00:12:15;;;;;;;17.00;14.38;;;;;;;8.16;63.83;100733.53;10384754;28;20509;-66
2021/11/15 00:17:17;;;;;;;17.60;14.68;;;;;;;8.04;63.71;100742.59;10384026;28;20057;-66
2021/11/15 00:22:19;;;;;;;17.88;14.50;;;;;;;7.98;64.18;100741.06;10384016;28;20144;-66
2021/11/15 00:27:21;;;;;;;19.77;15.43;;;;;;;7.94;64.16;100736.00;10383618;28;20052;-66
2021/11/15 00:32:22;;;;;;;19.85;15.15;;;;;;;7.94;64.27;100739.47;10383754;28;20060;-66
2021/11/15 00:37:24;;;;;;;20.63;17.55;;;;;;;7.98;64.04;100729.78;10382849;28;20056;-66
2021/11/15 00:42:26;;;;;;;19.52;15.93;;;;;;;7.85;64.36;100725.94;10383057;28;20053;-65
2021/11/15 00:47:28;;;;;;;20.55;15.77;;;;;;;7.92;64.34;100724.78;10387726;28;20054;-66
2021/11/15 00:52:30;;;;;;;20.98;16.42;;;;;;;7.86;64.37;100736.28;10391712;28;20135;-65
2021/11/15 00:57:31;;;;;;;19.13;16.13;;;;;;;7.93;64.09;100737.78;10390734;28;20520;-65
2021/11/15 01:02:33;;;;;;;18.45;15.18;;;;;;;7.95;64.07;100740.34;10390453;28;20053;-66
2021/11/15 01:07:35;;;;;;;19.52;16.42;;;;;;;7.96;64.28;100737.66;10389812;28;20084;-65
2021/11/15 01:12:37;;;;;;;18.58;16.40;;;;;;;7.98;63.99;100742.81;10391012;28;20053;-66
2021/11/15 01:17:39;;;;;;;21.83;17.92;;;;;;;7.99;64.04;100740.16;10390734;28;20460;-65
2021/11/15 01:22:41;;;;;;;24.27;18.67;;;;;;;7.95;63.95;100743.78;10390298;28;20057;-65
2021/11/15 01:27:44;;;;;;;20.05;17.17;;;;;;;7.93;63.96;100734.31;10389998;28;20046;-66
2021/11/15 01:32:46;;;;;;;22.67;18.25;;;;;;;7.97;64.12;100741.97;10390451;28;20060;-66
2021/11/15 01:37:48;;;;;;;20.98;17.75;;;;;;;8.04;63.83;100734.78;10389015;28;20050;-66
2021/11/15 01:42:51;;;;;;;20.38;16.85;;;;;;;7.88;64.14;100731.03;10389564;28;20057;-66
2021/11/15 01:47:55;;;;;;;21.35;16.67;;;;;;;7.89;64.10;100731.00;10389335;28;20149;-66
2021/11/15 01:52:58;;;;;;;20.70;16.42;;;;;;;7.98;63.77;100735.84;10388876;28;20507;-66
2021/11/15 01:58:03;;;;;;;21.40;17.63;;;;;;;7.86;63.94;100723.28;10388298;28;20050;-65
2021/11/15 02:03:05;;;;;;;21.60;16.65;;;;;;;7.79;64.25;100728.78;10388596;28;20057;-66
2021/11/15 02:08:07;;;;;;;22.77;18.35;;;;;;;7.74;64.54;100728.06;10388629;28;20553;-66
2021/11/15 02:13:13;;;;;;;22.90;17.80;;;;;;;7.87;64.21;100722.38;10387947;28;20071;-65
2021/11/15 02:18:16;;;;;;;26.40;18.77;;;;;;;7.74;64.61;100721.13;10388072;28;20049;-65
2021/11/15 02:23:19;;;;;;;23.15;18.38;;;;;;;7.74;64.62;100715.91;10386659;28;20410;-65
2021/11/15 02:28:30;;;;;;;27.38;20.00;;;;;;;7.96;64.36;100718.56;10388299;28;20772;-65
2021/11/15 02:33:32;;;;;;;25.10;19.38;;;;;;;7.82;64.63;100713.88;10387615;28;20301;-65
2021/11/15 02:38:35;;;;;;;26.23;19.48;;;;;;;8.00;64.41;100710.59;10387556;28;20520;-66
2021/11/15 02:43:37;;;;;;;25.67;20.05;;;;;;;8.03;64.39;100707.91;10386092;28;20079;-66
2021/11/15 02:48:39;;;;;;;25.98;19.67;;;;;;;7.84;64.67;100708.59;10386903;28;20053;-66
2021/11/15 02:53:42;;;;;;;26.40;19.48;;;;;;;7.81;64.63;100703.53;10386276;28;20056;-66
2021/11/15 02:58:44;;;;;;;28.48;19.92;;;;;;;7.61;65.26;100704.22;10387027;28;20064;-65
2021/11/15 03:03:45;;;;;;;25.23;18.52;;;;;;;7.77;64.92;100694.94;10390357;28;20144;-65
2021/11/15 03:08:47;;;;;;;27.13;19.40;;;;;;;7.69;65.31;100694.38;10391746;28;20386;-65
2021/11/15 03:13:49;;;;;;;27.77;19.40;;;;;;;7.66;65.39;100688.44;10392920;28;20573;-66
2021/11/15 03:18:50;;;;;;;28.70;20.23;;;;;;;7.80;65.31;100692.25;10392966;28;20049;-65
2021/11/15 03:23:54;;;;;;;26.70;19.40;;;;;;;7.79;65.14;100692.31;10392184;28;20075;-65
2021/11/15 03:28:56;;;;;;;27.13;19.23;;;;;;;7.73;65.23;100685.56;10392177;28;20113;-65
2021/11/15 03:34:13;;;;;;;27.42;19.45;;;;;;;7.63;65.28;100680.75;10392236;28;20425;-66
2021/11/15 03:39:16;;;;;;;31.23;19.05;;;;;;;7.59;65.68;100680.00;10391770;28;20045;-65
2021/11/15 03:44:20;;;;;;;29.13;19.00;;;;;;;7.77;65.51;100679.31;10391552;28;20049;-65
2021/11/15 03:49:21;;;;;;;27.92;19.73;;;;;;;7.85;65.44;100685.09;10391123;28;20053;-65
2021/11/15 03:54:23;;;;;;;29.38;19.60;;;;;;;7.68;65.61;100681.41;10391882;28;20493;-65
2021/11/15 03:59:25;;;;;;;28.63;19.73;;;;;;;7.74;65.50;100676.00;10392023;28;20045;-65
2021/11/15 04:04:31;;;;;;;25.15;17.35;;;;;;;7.86;65.06;100679.00;10387359;28;20498;-66
2021/11/15 04:09:33;;;;;;;25.88;18.42;;;;;;;7.67;65.38;100674.53;10384641;28;20373;-65
2021/11/15 04:14:34;;;;;;;27.25;18.45;;;;;;;7.65;65.49;100681.53;10382814;28;20049;-65
2021/11/15 04:19:36;;;;;;;27.63;17.77;;;;;;;7.55;65.60;100681.00;10384167;28;20050;-65
2021/11/15 04:24:38;;;;;;;27.70;18.10;;;;;;;7.54;65.54;100678.47;10391123;28;20085;-65
2021/11/15 04:29:40;;;;;;;24.30;17.67;;;;;;;7.53;65.69;100677.59;10391882;28;20124;-65
2021/11/15 04:34:42;;;;;;;26.13;18.42;;;;;;;7.67;65.38;100672.75;10392074;28;20141;-65
2021/11/15 04:39:44;;;;;;;27.77;19.08;;;;;;;7.70;65.41;100670.06;10390707;28;20213;-65
2021/11/15 04:44:46;;;;;;;26.15;18.15;;;;;;;7.68;65.27;100655.38;10390544;28;20432;-65
2021/11/15 04:49:48;;;;;;;26.08;18.15;;;;;;;7.73;65.05;100659.50;10392763;28;20058;-65
2021/11/15 04:54:50;;;;;;;25.52;18.38;;;;;;;7.78;65.10;100655.00;10390893;28;20084;-64
2021/11/15 04:59:53;;;;;;;22.92;17.20;;;;;;;7.79;64.84;100650.66;10389411;28;20059;-65
2021/11/15 05:04:55;;;;;;;25.23;17.88;;;;;;;7.67;65.27;100653.72;10390644;28;20057;-65
2021/11/15 05:09:56;;;;;;;24.90;17.77;;;;;;;7.74;65.18;100658.63;10391479;28;20300;-64
2021/11/15 05:14:58;;;;;;;23.92;16.60;;;;;;;7.75;65.11;100656.88;10388415;28;20129;-65
2021/11/15 05:20:00;;;;;;;24.50;16.95;;;;;;;7.68;65.11;100660.59;10387945;28;20052;-65
2021/11/15 05:25:02;;;;;;;22.15;16.08;;;;;;;7.65;65.42;100650.31;10387796;28;20591;-64
2021/11/15 05:30:06;;;;;;;23.75;15.88;;;;;;;7.65;65.34;100660.72;10387869;28;20049;-65
2021/11/15 05:35:08;;;;;;;23.30;16.60;;;;;;;7.64;65.40;100662.47;10387315;28;20049;-64
2021/11/15 05:40:11;;;;;;;23.08;15.60;;;;;;;7.56;65.27;100669.72;10387447;28;20175;-64
2021/11/15 05:45:15;;;;;;;21.45;15.35;;;;;;;7.37;65.66;100667.78;10387521;28;20928;-65
2021/11/15 05:50:18;;;;;;;21.90;15.52;;;;;;;7.50;65.38;100658.66;10386958;28;20049;-65
2021/11/15 05:55:22;;;;;;;20.05;14.00;;;;;;;7.50;65.26;100661.25;10386869;28;20792;-66
2021/11/15 06:00:26;;;;;;;22.67;14.90;;;;;;;7.50;65.14;100666.47;10386564;28;20050;-67
2021/11/15 06:05:28;;;;;;;18.65;12.95;;;;;;;7.49;65.04;100665.59;10386348;28;20144;-67
2021/11/15 06:10:30;;;;;;;17.48;12.38;;;;;;;7.37;65.09;100665.19;10386248;28;20045;-67
2021/11/15 06:15:32;;;;;;;17.47;12.77;;;;;;;7.24;65.17;100664.78;10346410;28;1149573;-67
2021/11/15 06:20:34;;;;;;;17.02;11.63;;;;;;;7.35;64.80;100657.44;10388389;28;20494;-67
2021/11/15 06:25:36;;;;;;;13.38;10.25;;;;;;;7.29;64.43;100673.25;10387608;28;20224;-68
2021/11/15 06:30:38;;;;;;;13.45;10.77;;;;;;;7.18;64.34;100686.63;10387186;28;20059;-67
2021/11/15 06:35:45;;;;;;;13.70;10.40;;;;;;;7.13;64.16;100687.69;10386194;28;20409;-68
2021/11/15 06:40:46;;;;;;;12.60;9.00;;;;;;;7.06;64.05;100697.44;10387557;28;20058;-67
2021/11/15 06:45:50;;;;;;;13.48;10.40;;;;;;;7.01;64.12;100701.97;10384389;28;20144;-68
2021/11/15 06:50:52;;;;;;;12.45;9.68;;;;;;;7.15;63.92;100697.16;10385805;28;20049;-67
2021/11/15 06:55:53;;;;;;;13.35;9.80;;;;;;;6.99;64.17;100698.56;10384721;28;20391;-67
2021/11/15 07:00:56;;;;;;;13.40;9.73;;;;;;;7.01;64.12;100714.13;10383974;28;20037;-67
2021/11/15 07:05:58;;;;;;;14.85;10.30;;;;;;;7.13;63.70;100705.91;10384422;28;20149;-67
2021/11/15 07:11:00;;;;;;;14.25;11.07;;;;;;;7.34;63.70;100713.00;10384702;28;20049;-67
2021/11/15 07:16:02;;;;;;;13.63;10.55;;;;;;;7.30;63.78;100714.00;10385212;28;20143;-67
2021/11/15 07:21:04;;;;;;;14.00;10.63;;;;;;;7.40;63.31;100712.78;10383925;28;20068;-68
2021/11/15 07:26:06;;;;;;;14.90;10.98;;;;;;;7.47;63.23;100714.25;10385887;28;20058;-67
2021/11/15 07:31:09;;;;;;;14.27;9.93;;;;;;;7.46;62.99;100717.78;10384831;28;20053;-67
2021/11/15 07:36:11;;;;;;;13.00;9.68;;;;;;;7.27;63.36;100723.66;10382586;28;20045;-67
2021/11/15 07:41:13;;;;;;;14.45;10.30;;;;;;;7.38;63.25;100729.34;10382733;28;20060;-66
2021/11/15 07:46:14;;;;;;;14.40;10.40;;;;;;;7.36;63.52;100732.00;10384478;28;20053;-67
2021/11/15 07:51:16;;;;;;;15.35;10.30;;;;;;;7.39;63.46;100742.31;10383603;28;20053;-67
2021/11/15 07:56:18;;;;;;;14.27;10.27;;;;;;;7.18;63.48;100743.03;10385109;28;20055;-67
2021/11/15 08:01:20;;;;;;;12.85;9.35;;;;;;;7.07;63.90;100742.53;10383658;28;20045;-67
2021/11/15 08:06:22;;;;;;;14.18;10.77;;;;;;;6.97;64.04;100741.13;10383843;28;20072;-67
2021/11/15 08:11:28;;;;;;;14.30;10.35;;;;;;;7.05;63.69;100739.13;10384604;28;20057;-67
2021/11/15 08:16:31;;;;;;;16.73;9.95;;;;;;;6.96;63.75;100731.59;10383639;28;20053;-67
2021/11/15 08:21:33;;;;;;;14.25;10.18;;;;;;;6.82;64.20;100728.59;10382964;28;20045;-67
2021/11/15 08:26:37;;;;;;;13.27;9.45;;;;;;;6.98;63.85;100722.00;10384038;28;20049;-67
2021/11/15 08:31:57;;;;;;;14.15;9.13;;;;;;;7.01;63.52;100729.72;10382960;28;20517;-67
2021/11/15 08:37:00;;;;;;;15.68;9.57;;;;;;;6.87;63.77;100732.78;10384019;28;20049;-66
2021/11/15 08:42:09;;;;;;;15.48;10.48;;;;;;;6.81;64.36;100726.91;10383610;28;20045;-66
2021/11/15 08:47:11;;;;;;;14.10;9.75;;;;;;;6.88;63.68;100724.06;10384167;28;20144;-66
2021/11/15 08:52:12;;;;;;;15.10;10.02;;;;;;;6.70;63.98;100723.78;10381461;28;20520;-66
2021/11/15 08:57:14;;;;;;;16.17;10.90;;;;;;;6.77;64.04;100731.38;10383720;28;20049;-67
2021/11/15 09:02:21;;;;;;;17.92;11.82;;;;;;;6.94;64.11;100728.19;10381289;28;20052;-66
2021/11/15 09:07:23;;;;;;;14.15;10.35;;;;;;;6.94;63.70;100736.88;10384200;28;20056;-67
2021/11/15 09:12:25;;;;;;;15.90;10.75;;;;;;;6.74;64.01;100735.78;10390331;28;20136;-67
2021/11/15 09:17:27;;;;;;;16.27;11.48;;;;;;;6.74;63.83;100734.06;10390962;28;20294;-79
2021/11/15 09:22:29;;;;;;;19.90;12.75;;;;;;;6.85;63.65;100746.72;10389758;28;20353;-81
2021/11/15 09:27:30;;;;;;;17.25;11.95;;;;;;;6.89;63.58;100737.91;10386455;28;20326;-78
2021/11/15 09:32:32;;;;;;;19.88;12.52;;;;;;;6.88;63.58;100736.19;10383338;28;20397;-79
2021/11/15 09:37:35;;;;;;;15.35;10.75;;;;;;;6.87;63.77;100737.97;10389137;28;20417;-78
2021/11/15 09:42:38;;;;;;;18.10;11.90;;;;;;;6.95;63.03;100737.72;10387603;28;20115;-78
2021/11/15 09:47:40;;;;;;;17.10;11.18;;;;;;;7.06;63.24;100744.25;10389663;28;20049;-78
2021/11/15 09:52:42;;;;;;;17.48;11.57;;;;;;;7.28;62.82;100754.84;10386963;28;20166;-79
2021/11/15 09:57:46;;;;;;;16.77;10.93;;;;;;;7.13;62.68;100752.72;10389419;28;20053;-73
2021/11/15 10:02:50;;;;;;;16.88;11.70;;;;;;;7.25;62.90;100744.53;10389269;28;20486;-75
2021/11/15 10:07:56;;;;;;;18.42;11.25;;;;;;;7.32;62.73;100739.97;10388568;28;20052;-75
2021/11/15 10:13:07;;;;;;;16.58;11.02;;;;;;;7.29;62.69;100740.91;10388200;28;20076;-78
2021/11/15 10:18:12;;;;;;;17.17;11.25;;;;;;;7.21;63.01;100727.31;10387471;28;20059;-68
2021/11/15 10:23:42;;;;;;;16.38;10.95;;;;;;;7.49;62.29;100727.25;10386064;28;20049;-80
2021/11/15 10:28:44;;;;;;;17.70;11.45;;;;;;;7.37;62.55;100718.09;10383768;28;20059;-79
2021/11/15 10:33:47;;;;;;;18.00;12.02;;;;;;;7.39;62.67;100718.88;10388455;28;20057;-82
2021/11/15 10:38:51;;;;;;;20.42;12.85;;;;;;;7.19;62.80;100719.56;10386718;28;20054;-81
2021/11/15 10:43:58;;;;;;;17.95;11.57;;;;;;;7.40;62.52;100719.75;10386506;28;20510;-79
2021/11/15 10:49:02;;;;;;;16.25;11.95;;;;;;;7.47;62.62;100723.84;10387529;28;20052;-81
2021/11/15 10:54:03;;;;;;;18.35;11.93;;;;;;;7.47;62.20;100729.88;10387317;28;20053;-80
2021/11/15 10:59:15;;;;;;;17.67;12.50;;;;;;;7.28;62.53;100720.16;10385846;28;20648;-79
2021/11/15 11:04:27;;;;;;;19.85;12.52;;;;;;;7.65;62.49;100718.81;10387121;28;20061;-81
2021/11/15 11:09:39;;;;;;;17.45;12.30;;;;;;;7.64;62.36;100700.66;10386704;28;20498;-80
2021/11/15 11:14:42;;;;;;;18.20;11.15;;;;;;;7.65;62.40;100698.00;10386700;28;20413;-80
2021/11/15 11:25:29;;;;;;;18.52;12.07;;;;;;;7.32;62.97;100707.00;10364310;28;20148;-81
2021/11/15 11:30:30;;;;;;;16.65;12.15;;;;;;;7.12;63.21;100706.81;10385762;28;20326;-81
2021/11/15 11:35:32;;;;;;;19.35;12.65;;;;;;;7.17;63.53;100699.69;10385605;28;20346;-80
2021/11/15 11:40:34;;;;;;;17.92;12.07;;;;;;;7.25;63.35;100691.63;10384426;28;20045;-80
2021/11/15 11:45:36;;;;;;;17.83;11.68;;;;;;;7.10;63.22;100693.03;10385639;28;20049;-82
2021/11/15 11:50:38;;;;;;;16.75;11.82;;;;;;;7.16;63.53;100698.84;10385402;28;20049;-80
2021/11/15 11:55:45;;;;;;;15.27;11.55;;;;;;;7.32;63.08;100688.78;10385488;28;20057;-79
2021/11/15 12:00:50;;;;;;;19.33;12.25;;;;;;;7.35;63.59;100688.66;10385582;28;20512;-79
2021/11/15 12:05:54;;;;;;;17.75;11.52;;;;;;;7.39;63.20;100686.78;10384934;28;20416;-80
2021/11/15 12:10:56;;;;;;;16.15;10.45;;;;;;;7.29;63.45;100701.03;10385310;28;20071;-78
2021/11/15 12:16:03;;;;;;;16.25;11.55;;;;;;;7.62;62.98;100687.72;10385160;28;20050;-83
2021/11/15 12:21:07;;;;;;;14.13;10.20;;;;;;;7.78;62.38;100683.66;10382449;28;20075;-83
2021/11/15 12:26:10;;;;;;;15.70;10.02;;;;;;;7.42;62.20;100684.97;10384671;28;20060;-83
2021/11/15 12:31:14;;;;;;;14.35;10.40;;;;;;;7.39;62.79;100679.84;10383245;28;20483;-83
2021/11/15 12:36:25;;;;;;;16.50;9.60;;;;;;;7.37;62.99;100676.44;10384476;28;20494;-83
2021/11/15 12:41:29;;;;;;;13.68;8.73;;;;;;;7.44;62.70;100677.09;10384504;28;20141;-80
2021/11/15 12:47:02;;;;;;;17.05;9.50;;;;;;;7.48;61.80;100660.47;10392899;28;20057;-83
2021/11/15 12:52:07;;;;;;;14.40;9.57;;;;;;;7.42;62.12;100655.47;10390661;28;20053;-81
2021/11/15 12:57:10;;;;;;;12.88;9.68;;;;;;;7.27;62.72;100650.78;10392135;28;20132;-81
2021/11/15 13:02:12;;;;;;;12.23;8.60;;;;;;;7.45;62.28;100651.00;10390640;28;20050;-82
2021/11/15 13:07:17;;;;;;;14.98;8.82;;;;;;;7.26;62.56;100642.16;10391219;28;20053;-81
2021/11/15 13:12:20;;;;;;;14.57;8.63;;;;;;;7.07;63.35;100635.88;10391666;28;20045;-81
2021/11/15 13:17:23;;;;;;;13.48;8.38;;;;;;;7.11;63.34;100638.34;10389639;28;20058;-81
2021/11/15 13:22:25;;;;;;;15.30;8.60;;;;;;;7.37;62.81;100633.97;10390984;28;20053;-80
2021/11/15 13:27:27;;;;;;;12.52;8.10;;;;;;;7.28;62.83;100632.56;10389020;28;20524;-85
2021/11/15 13:32:30;;;;;;;11.93;8.13;;;;;;;7.11;63.03;100627.06;10390403;28;20046;-83
2021/11/15 13:37:31;;;;;;;13.65;8.20;;;;;;;6.95;63.33;100624.16;10391103;28;20061;-81
2021/11/15 13:42:34;;;;;;;12.95;8.50;;;;;;;6.50;64.56;100606.63;10390159;28;20136;-82
2021/11/15 13:47:35;;;;;;;17.25;8.85;;;;;;;6.67;64.28;100614.72;10390510;28;20323;-80
2021/11/15 13:52:37;;;;;;;13.02;8.80;;;;;;;6.60;64.49;100602.81;10389665;28;20420;-80
2021/11/15 13:57:39;;;;;;;13.77;9.55;;;;;;;6.81;64.06;100597.78;10390189;28;20053;-81
2021/11/15 14:02:40;;;;;;;15.68;9.48;;;;;;;6.88;63.81;100598.41;10389357;28;20045;-82
2021/11/15 14:07:42;;;;;;;17.70;9.75;;;;;;;6.92;63.91;100598.25;10387991;28;20426;-81
2021/11/15 14:12:44;;;;;;;14.98;8.93;;;;;;;6.88;63.61;100593.19;10389165;28;20084;-79
2021/11/15 14:17:47;;;;;;;12.65;8.90;;;;;;;6.89;63.55;100600.13;10388595;28;20553;-81
2021/11/15 14:22:49;;;;;;;13.15;8.63;;;;;;;7.11;63.15;100599.31;10388199;28;20868;-82
2021/11/15 14:27:53;;;;;;;12.55;8.57;;;;;;;6.96;63.10;100598.97;10386960;28;20053;-80
2021/11/15 14:32:54;;;;;;;12.23;8.88;;;;;;;6.89;63.32;100602.72;10388609;28;20445;-83
2021/11/15 14:37:57;;;;;;;13.75;9.18;;;;;;;6.97;63.14;100595.50;10389536;28;20061;-80
2021/11/15 14:43:00;;;;;;;14.25;9.35;;;;;;;7.14;62.79;100599.19;10386509;28;20132;-80
2021/11/15 14:48:02;;;;;;;13.25;9.00;;;;;;;7.24;62.85;100602.34;10387942;28;20053;-78
2021/11/15 14:53:04;;;;;;;12.75;9.27;;;;;;;7.20;62.62;100603.34;10387896;28;20539;-79
2021/11/15 14:58:07;;;;;;;15.18;9.90;;;;;;;7.08;62.72;100609.81;10387230;28;20141;-79
2021/11/15 15:03:10;;;;;;;13.70;9.68;;;;;;;7.12;62.60;100607.97;10386928;28;20441;-78
2021/11/15 15:08:12;;;;;;;13.95;9.85;;;;;;;7.08;62.74;100598.59;10386401;28;20049;-78
2021/11/15 15:13:17;;;;;;;13.98;10.10;;;;;;;6.91;63.12;100593.09;10386320;28;20144;-80
2021/11/15 15:18:21;;;;;;;14.73;10.43;;;;;;;6.91;63.08;100606.97;10386478;28;20148;-79
2021/11/15 15:23:24;;;;;;;16.45;10.98;;;;;;;6.79;63.20;100604.78;10386700;28;20498;-79
2021/11/15 15:28:27;;;;;;;13.45;10.25;;;;;;;6.73;63.67;100596.34;10386085;28;20053;-79
2021/11/15 15:33:29;;;;;;;16.52;11.48;;;;;;;6.69;63.67;100599.94;10386088;28;20057;-82
2021/11/15 15:38:31;;;;;;;14.70;10.73;;;;;;;6.69;63.71;100607.72;10386688;28;20052;-80
2021/11/15 15:43:33;;;;;;;16.42;11.43;;;;;;;6.71;64.00;100600.72;10385625;28;20118;-82
2021/11/15 15:48:35;;;;;;;16.88;11.45;;;;;;;6.78;64.10;100602.22;10384428;28;20056;-79
2021/11/15 15:53:38;;;;;;;16.15;10.95;;;;;;;6.69;64.09;100610.34;10386491;28;20435;-81
2021/11/15 15:58:39;;;;;;;18.67;11.80;;;;;;;6.78;63.99;100612.63;10385219;28;20875;-78
2021/11/15 16:19:26;;;;;;;19.08;12.82;;;;;;;6.59;64.47;100607.19;10395047;28;20045;-63
2021/11/15 16:24:28;;;;;;;19.08;13.02;;;;;;;6.60;64.43;100623.63;10393388;28;20588;-64
2021/11/15 16:29:29;;;;;;;20.33;12.98;;;;;;;6.61;64.54;100618.41;10391877;28;20037;-64
2021/11/15 16:34:32;;;;;;;19.25;13.93;;;;;;;6.66;64.36;100618.22;10392534;28;20424;-63
2021/11/15 16:39:34;;;;;;;21.63;14.50;;;;;;;6.59;64.60;100633.19;10393018;28;20144;-63
2021/11/15 16:44:36;;;;;;;19.67;14.35;;;;;;;6.64;64.60;100625.22;10392756;28;20520;-63
2021/11/15 16:49:38;;;;;;;20.90;13.88;;;;;;;6.62;64.54;100640.00;10392553;28;20144;-63
2021/11/15 16:54:40;;;;;;;21.23;14.00;;;;;;;6.57;64.73;100637.56;10390353;28;20049;-64
2021/11/15 16:59:41;;;;;;;19.88;13.93;;;;;;;6.52;64.93;100626.47;10392469;28;20049;-63
2021/11/15 17:04:46;;;;;;;21.75;14.95;;;;;;;6.59;64.76;100628.00;10391728;28;20058;-64
2021/11/15 17:09:48;;;;;;;23.80;14.40;;;;;;;6.51;64.65;100623.94;10392279;28;20338;-64
2021/11/15 17:14:50;;;;;;;20.20;13.73;;;;;;;6.57;64.75;100621.13;10390434;28;20095;-64
2021/11/15 17:19:52;;;;;;;23.27;15.20;;;;;;;6.62;64.52;100622.69;10391469;28;20046;-63
2021/11/15 17:24:54;;;;;;;24.17;14.77;;;;;;;6.54;64.62;100623.81;10390544;28;20250;-63
2021/11/15 17:29:57;;;;;;;26.25;16.23;;;;;;;6.50;64.78;100619.63;10389034;28;20140;-63
2021/11/15 17:34:59;;;;;;;26.60;16.08;;;;;;;6.54;64.78;100618.63;10390238;28;20056;-64
2021/11/15 17:40:01;;;;;;;25.90;16.50;;;;;;;6.68;64.63;100621.63;10390607;28;20050;-64
2021/11/15 17:45:05;;;;;;;26.77;17.13;;;;;;;6.39;65.18;100624.31;10390810;28;20073;-64
2021/11/15 17:50:14;;;;;;;28.08;17.65;;;;;;;6.48;65.05;100618.81;10390107;28;20143;-63
2021/11/15 17:55:40;;;;;;;28.77;17.92;;;;;;;6.61;64.89;100621.00;10389800;28;20049;-64
2021/11/15 18:00:37;;;;;;;30.00;18.50;;;;;;;6.53;64.87;100620.34;10389376;28;20079;-64
2021/11/15 18:05:41;;;;;;;29.92;18.73;;;;;;;6.52;65.33;100625.63;10389440;28;20061;-63
2021/11/15 18:10:43;;;;;;;28.38;18.27;;;;;;;6.54;65.10;100623.81;10389193;28;20128;-64
2021/11/15 18:15:45;;;;;;;31.25;19.55;;;;;;;6.64;64.92;100630.41;10389387;28;20137;-64
2021/11/15 18:20:49;;;;;;;29.52;18.55;;;;;;;6.69;64.98;100629.38;10388972;28;20128;-63
2021/11/15 18:25:50;;;;;;;31.92;19.17;;;;;;;6.77;64.63;100629.13;10388676;28;20141;-64
2021/11/15 18:30:56;;;;;;;33.17;19.95;;;;;;;6.64;64.75;100633.88;10387941;28;20041;-64
2021/11/15 18:35:58;;;;;;;30.63;20.02;;;;;;;6.71;64.91;100627.59;10388169;28;20061;-64
2021/11/15 18:41:00;;;;;;;32.55;20.42;;;;;;;6.73;64.84;100632.72;10386901;28;20049;-64
2021/11/15 18:46:02;;;;;;;31.42;19.92;;;;;;;6.74;64.80;100630.06;10388000;28;20049;-64
2021/11/15 18:51:05;;;;;;;31.55;18.95;;;;;;;6.82;64.59;100627.22;10387329;28;20446;-63
2021/11/15 18:56:07;;;;;;;33.08;20.17;;;;;;;6.93;64.48;100632.91;10387864;28;20141;-64
2021/11/15 19:01:29;;;;;;;28.80;18.02;;;;;;;6.76;64.71;100624.81;10387879;28;20348;-64
2021/11/15 19:06:31;;;;;;;30.25;19.23;;;;;;;6.88;64.43;100621.81;10386449;28;20057;-64
2021/11/15 19:16:46;;;;;;;33.50;20.08;;;;;;;6.75;64.71;100641.31;10386710;28;20053;-64
2021/11/15 19:21:49;;;;;;;35.03;21.27;;;;;;;6.75;64.79;100641.31;10386682;28;20497;-63
2021/11/15 19:27:07;;;;;;;34.53;21.13;;;;;;;6.48;65.29;100631.81;10386297;28;20340;-64
2021/11/15 19:32:09;;;;;;;37.40;21.20;;;;;;;6.53;65.37;100629.94;10385399;28;20060;-64
2021/11/15 19:37:11;;;;;;;34.38;21.45;;;;;;;6.49;65.27;100621.34;10382692;28;20056;-64
2021/11/15 19:42:14;;;;;;;40.22;22.77;;;;;;;6.46;65.46;100628.41;10383659;28;20117;-64
2021/11/15 19:47:16;;;;;;;38.67;22.33;;;;;;;6.52;65.50;100630.81;10379571;28;20088;-64
2021/11/15 19:52:20;;;;;;;35.95;21.63;;;;;;;6.40;65.64;100637.25;10377739;28;20050;-64
2021/11/15 19:57:38;;;;;;;34.28;21.20;;;;;;;6.42;65.86;100642.41;10381441;28;20053;-64
2021/11/15 20:02:40;;;;;;;35.42;21.35;;;;;;;6.43;66.07;100634.53;10384269;28;20128;-64
2021/11/15 20:07:43;;;;;;;40.75;22.05;;;;;;;6.45;65.88;100642.31;10379277;28;20059;-64
2021/11/15 20:12:45;;;;;;;39.35;22.65;;;;;;;6.50;65.59;100645.59;10382580;28;20045;-64
2021/11/15 20:17:48;;;;;;;41.25;23.60;;;;;;;6.44;66.37;100645.78;10383148;28;20148;-64
2021/11/15 20:22:50;;;;;;;41.92;24.13;;;;;;;6.23;66.54;100650.72;10383049;28;20041;-64
2021/11/15 20:27:52;;;;;;;39.45;24.05;;;;;;;6.26;66.71;100653.28;10383128;28;20063;-64
2021/11/15 20:32:55;;;;;;;45.83;24.63;;;;;;;6.23;67.00;100649.88;10382870;28;20049;-64
2021/11/15 20:37:58;;;;;;;39.83;23.65;;;;;;;6.22;67.01;100654.25;10382997;28;20049;-64
2021/11/15 20:43:01;;;;;;;49.38;24.95;;;;;;;6.30;66.91;100647.09;10382943;28;20140;-64
2021/11/15 20:48:05;;;;;;;46.40;26.27;;;;;;;6.30;66.95;100647.09;10382224;28;20269;-64
2021/11/15 20:53:08;;;;;;;48.00;25.95;;;;;;;6.23;67.23;100661.13;10383730;28;20079;-64
2021/11/15 20:58:09;;;;;;;43.97;25.33;;;;;;;6.14;67.65;100661.38;10383472;28;20049;-64
2021/11/15 21:03:14;;;;;;;51.92;27.48;;;;;;;6.08;68.00;100663.34;10384341;28;20144;-64
2021/11/15 21:08:17;;;;;;;48.53;25.95;;;;;;;6.00;68.34;100658.34;10390837;28;20145;-64
2021/11/15 21:13:20;;;;;;;54.78;28.00;;;;;;;5.93;68.39;100654.25;10390826;28;20049;-64
2021/11/15 21:18:23;;;;;;;47.50;25.75;;;;;;;6.01;68.44;100654.00;10390058;28;20530;-64
2021/11/15 21:23:24;;;;;;;51.58;27.60;;;;;;;6.09;68.23;100668.47;10388852;28;20387;-64
2021/11/15 21:28:26;;;;;;;53.17;26.52;;;;;;;6.04;68.49;100666.94;10389731;28;20448;-64
2021/11/15 21:33:28;;;;;;;44.85;25.10;;;;;;;6.15;68.49;100663.09;10388268;28;20053;-64
2021/11/15 21:38:30;;;;;;;57.50;27.30;;;;;;;6.21;68.36;100662.06;10389805;28;20646;-64
2021/11/15 21:43:31;;;;;;;51.88;26.17;;;;;;;6.11;68.59;100669.28;10389580;28;20133;-63
2021/11/15 21:48:33;;;;;;;52.65;26.33;;;;;;;6.16;68.47;100659.63;10386333;28;20049;-65
2021/11/15 21:53:35;;;;;;;44.92;24.58;;;;;;;6.24;68.26;100664.56;10388078;28;20054;-64
2021/11/15 21:58:37;;;;;;;53.25;27.05;;;;;;;6.33;68.28;100649.59;10388967;28;20053;-64
2021/11/15 22:03:39;;;;;;;58.75;28.73;;;;;;;6.35;68.23;100647.78;10370543;28;20041;-64
2021/11/15 22:08:40;;;;;;;52.42;25.85;;;;;;;6.44;67.89;100656.19;10388492;28;20067;-65
2021/11/15 22:13:43;;;;;;;66.07;30.13;;;;;;;6.51;68.07;100640.34;10387886;28;20721;-64
2021/11/15 22:18:44;;;;;;;71.78;31.42;;;;;;;6.70;67.90;100638.00;10347180;28;20140;-64
2021/11/15 22:23:46;;;;;;;59.97;28.98;;;;;;;6.73;67.81;100637.94;10347367;28;20565;-64
2021/11/15 22:28:49;;;;;;;86.38;34.78;;;;;;;6.71;67.85;100634.53;10342139;28;20465;-64
2021/11/15 22:33:52;;;;;;;61.13;28.92;;;;;;;6.60;68.06;100636.63;10345971;28;20054;-64
2021/11/15 22:38:54;;;;;;;69.55;30.98;;;;;;;6.65;67.61;100633.00;10344151;28;20411;-64
2021/11/15 22:43:56;;;;;;;67.07;30.35;;;;;;;6.60;68.02;100641.81;10346063;28;20054;-64
2021/11/15 22:48:57;;;;;;;60.55;28.00;;;;;;;6.59;68.03;100629.72;10342774;28;20084;-63
2021/11/15 22:53:59;;;;;;;75.47;33.75;;;;;;;6.48;68.01;100631.81;10340255;28;20050;-63
2021/11/15 22:59:02;;;;;;;51.38;25.75;;;;;;;6.25;68.50;100643.78;10340652;28;20114;-64
2021/11/15 23:04:04;;;;;;;56.22;28.45;;;;;;;6.28;68.69;100637.66;10342775;28;20052;-63
2021/11/15 23:09:06;;;;;;;55.13;27.50;;;;;;;6.41;68.68;100643.31;10344280;28;20053;-63
2021/11/15 23:14:08;;;;;;;58.13;28.90;;;;;;;6.43;68.82;100641.50;10349475;28;20057;-65
2021/11/15 23:19:12;;;;;;;80.85;33.38;;;;;;;6.40;68.58;100632.06;10385965;28;20041;-65
2021/11/15 23:24:19;;;;;;;61.30;29.75;;;;;;;6.47;68.37;100632.72;10384664;28;20060;-64